TWB224 RKSI-ROAH
Flight info
| Callsign | TWB224 |
|---|---|
| Flight time | 1h 49m |
| Altitude | 36000 |
| Route | BOPTA Z51 BEDES Y711 KIDOS Z81 CJU Y572 RUGMA Y579 GUPTI |
| Aircraft | B738/M-VGDW/C |
Departure
| Time | 2026-05-05 07:17 |
|---|---|
| Airport | Incheon International Airport (RKSI) |
Arrival
| Time | 2026-05-05 09:07 |
|---|---|
| Airport | Naha International Airport (ROAH) |
| Time | Latitude | Longitude | Altitude | Speed | Heading |
|---|---|---|---|---|---|
| 2026-05-05 06:47 | 37.45379 | 126.45012 | 32 ft | 0 kts | 128° |
| 2026-05-05 06:49 | 37.45380 | 126.45012 | 32 ft | 0 kts | 128° |
| 2026-05-05 06:55 | 37.45380 | 126.45011 | 32 ft | 0 kts | 128° |
| 2026-05-05 07:02 | 37.45381 | 126.45009 | 32 ft | 2 kts | 128° |
| 2026-05-05 07:02 | 37.45393 | 126.44991 | 32 ft | 3 kts | 130° |
| 2026-05-05 07:03 | 37.45406 | 126.44972 | 31 ft | 3 kts | 134° |
| 2026-05-05 07:03 | 37.45421 | 126.44955 | 31 ft | 3 kts | 143° |
| 2026-05-05 07:03 | 37.45437 | 126.44942 | 30 ft | 3 kts | 168° |
| 2026-05-05 07:03 | 37.45451 | 126.44941 | 30 ft | 2 kts | 225° |
| 2026-05-05 07:04 | 37.45453 | 126.44944 | 29 ft | 0 kts | 234° |
| 2026-05-05 07:07 | 37.45446 | 126.44931 | 32 ft | 5 kts | 234° |
| 2026-05-05 07:07 | 37.45430 | 126.44862 | 28 ft | 11 kts | 288° |
| 2026-05-05 07:08 | 37.45464 | 126.44781 | 32 ft | 11 kts | 265° |
| 2026-05-05 07:08 | 37.45425 | 126.44702 | 32 ft | 11 kts | 234° |
| 2026-05-05 07:08 | 37.45373 | 126.44608 | 32 ft | 17 kts | 234° |
| 2026-05-05 07:08 | 37.45293 | 126.44466 | 32 ft | 23 kts | 234° |
| 2026-05-05 07:09 | 37.45200 | 126.44303 | 32 ft | 23 kts | 234° |
| 2026-05-05 07:09 | 37.45112 | 126.44148 | 32 ft | 20 kts | 234° |
| 2026-05-05 07:09 | 37.45046 | 126.44028 | 32 ft | 14 kts | 243° |
| 2026-05-05 07:09 | 37.45082 | 126.43934 | 30 ft | 13 kts | 327° |
| 2026-05-05 07:10 | 37.45169 | 126.43857 | 32 ft | 18 kts | 324° |
| 2026-05-05 07:10 | 37.45284 | 126.43754 | 30 ft | 22 kts | 325° |
| 2026-05-05 07:10 | 37.45420 | 126.43633 | 31 ft | 26 kts | 324° |
| 2026-05-05 07:10 | 37.45571 | 126.43498 | 29 ft | 27 kts | 324° |
| 2026-05-05 07:11 | 37.45719 | 126.43368 | 32 ft | 25 kts | 325° |
| 2026-05-05 07:11 | 37.45856 | 126.43246 | 32 ft | 24 kts | 324° |
| 2026-05-05 07:11 | 37.46003 | 126.43116 | 32 ft | 28 kts | 324° |
| 2026-05-05 07:11 | 37.46165 | 126.42970 | 31 ft | 28 kts | 325° |
| 2026-05-05 07:12 | 37.46320 | 126.42831 | 32 ft | 27 kts | 325° |
| 2026-05-05 07:12 | 37.46465 | 126.42704 | 30 ft | 25 kts | 324° |
| 2026-05-05 07:12 | 37.46604 | 126.42580 | 32 ft | 26 kts | 324° |
| 2026-05-05 07:12 | 37.46766 | 126.42435 | 30 ft | 29 kts | 324° |
| 2026-05-05 07:13 | 37.46924 | 126.42294 | 32 ft | 27 kts | 324° |
| 2026-05-05 07:13 | 37.47072 | 126.42162 | 32 ft | 25 kts | 324° |
| 2026-05-05 07:13 | 37.47224 | 126.42027 | 32 ft | 29 kts | 324° |
| 2026-05-05 07:13 | 37.47357 | 126.41910 | 32 ft | 15 kts | 325° |
| 2026-05-05 07:14 | 37.47403 | 126.41813 | 32 ft | 14 kts | 253° |
| 2026-05-05 07:14 | 37.47351 | 126.41716 | 32 ft | 11 kts | 234° |
| 2026-05-05 07:14 | 37.47339 | 126.41695 | 32 ft | 0 kts | 234° |
| 2026-05-05 07:16 | 37.47324 | 126.41668 | 32 ft | 7 kts | 234° |
| 2026-05-05 07:16 | 37.47273 | 126.41609 | 32 ft | 11 kts | 199° |
| 2026-05-05 07:16 | 37.47200 | 126.41630 | 31 ft | 12 kts | 144° |
| 2026-05-05 07:16 | 37.47057 | 126.41758 | 32 ft | 52 kts | 145° |
| 2026-05-05 07:17 | 37.46588 | 126.42175 | 32 ft | 112 kts | 145° |
| 2026-05-05 07:17 | 37.45826 | 126.42852 | 31 ft | 158 kts | 145° |
| 2026-05-05 07:17 | 37.44878 | 126.43710 | 413 ft | 166 kts | 150° |
| 2026-05-05 07:17 | 37.43903 | 126.44456 | 1169 ft | 160 kts | 155° |
| 2026-05-05 07:18 | 37.42968 | 126.45152 | 1948 ft | 152 kts | 156° |
| 2026-05-05 07:18 | 37.42066 | 126.45819 | 2675 ft | 149 kts | 157° |
| 2026-05-05 07:18 | 37.41131 | 126.46507 | 3111 ft | 164 kts | 155° |
| 2026-05-05 07:18 | 37.40095 | 126.47274 | 3372 ft | 189 kts | 155° |
| 2026-05-05 07:19 | 37.38889 | 126.48169 | 3570 ft | 212 kts | 154° |
| 2026-05-05 07:19 | 37.37487 | 126.48910 | 3756 ft | 226 kts | 170° |
| 2026-05-05 07:19 | 37.35880 | 126.49384 | 3960 ft | 249 kts | 169° |
| 2026-05-05 07:19 | 37.34168 | 126.49938 | 4503 ft | 259 kts | 168° |
| 2026-05-05 07:20 | 37.32405 | 126.50527 | 5148 ft | 265 kts | 168° |
| 2026-05-05 07:20 | 37.30618 | 126.51129 | 5868 ft | 267 kts | 168° |
| 2026-05-05 07:20 | 37.28812 | 126.51740 | 6546 ft | 271 kts | 168° |
| 2026-05-05 07:20 | 37.27012 | 126.52523 | 7189 ft | 277 kts | 157° |
| 2026-05-05 07:21 | 37.25298 | 126.53663 | 7895 ft | 280 kts | 153° |
| 2026-05-05 07:21 | 37.23598 | 126.54874 | 8561 ft | 283 kts | 153° |
| 2026-05-05 07:21 | 37.21867 | 126.56101 | 9228 ft | 286 kts | 153° |
| 2026-05-05 07:21 | 37.20118 | 126.57320 | 9909 ft | 290 kts | 154° |
| 2026-05-05 07:22 | 37.18349 | 126.58533 | 10338 ft | 301 kts | 154° |
| 2026-05-05 07:22 | 37.16439 | 126.59826 | 10489 ft | 322 kts | 154° |
| 2026-05-05 07:22 | 37.14400 | 126.61202 | 10637 ft | 341 kts | 154° |
| 2026-05-05 07:22 | 37.12179 | 126.62416 | 10772 ft | 356 kts | 169° |
| 2026-05-05 07:23 | 37.09689 | 126.62591 | 11207 ft | 360 kts | 182° |
| 2026-05-05 07:23 | 37.07175 | 126.62514 | 11796 ft | 363 kts | 182° |
| 2026-05-05 07:23 | 37.04642 | 126.62449 | 12365 ft | 367 kts | 182° |
| 2026-05-05 07:23 | 37.02076 | 126.62404 | 13066 ft | 368 kts | 181° |
| 2026-05-05 07:24 | 36.99545 | 126.62370 | 13745 ft | 368 kts | 180° |
| 2026-05-05 07:24 | 36.96962 | 126.62355 | 14290 ft | 373 kts | 180° |
| 2026-05-05 07:24 | 36.94339 | 126.62387 | 14753 ft | 380 kts | 179° |
| 2026-05-05 07:24 | 36.91675 | 126.62429 | 15267 ft | 385 kts | 179° |
| 2026-05-05 07:25 | 36.88976 | 126.62466 | 15789 ft | 390 kts | 179° |
| 2026-05-05 07:25 | 36.86266 | 126.62423 | 16424 ft | 391 kts | 182° |
| 2026-05-05 07:25 | 36.83533 | 126.62253 | 16987 ft | 395 kts | 183° |
| 2026-05-05 07:25 | 36.80772 | 126.62055 | 17526 ft | 399 kts | 183° |
| 2026-05-05 07:26 | 36.77975 | 126.61875 | 18015 ft | 404 kts | 182° |
| 2026-05-05 07:26 | 36.75190 | 126.61712 | 18522 ft | 408 kts | 182° |
| 2026-05-05 07:26 | 36.72351 | 126.61852 | 18972 ft | 410 kts | 167° |
| 2026-05-05 07:26 | 36.69593 | 126.62783 | 19509 ft | 411 kts | 163° |
| 2026-05-05 07:27 | 36.66837 | 126.63774 | 19998 ft | 414 kts | 163° |
| 2026-05-05 07:27 | 36.64046 | 126.64760 | 20450 ft | 417 kts | 164° |
| 2026-05-05 07:27 | 36.61235 | 126.65733 | 20916 ft | 420 kts | 165° |
| 2026-05-05 07:27 | 36.58400 | 126.66696 | 21393 ft | 422 kts | 165° |
| 2026-05-05 07:28 | 36.55558 | 126.67652 | 21857 ft | 424 kts | 165° |
| 2026-05-05 07:28 | 36.52692 | 126.68611 | 22271 ft | 428 kts | 165° |
| 2026-05-05 07:28 | 36.49840 | 126.69564 | 22687 ft | 431 kts | 165° |
| 2026-05-05 07:28 | 36.46936 | 126.70534 | 23124 ft | 433 kts | 165° |
| 2026-05-05 07:29 | 36.44009 | 126.71512 | 23556 ft | 435 kts | 165° |
| 2026-05-05 07:29 | 36.41073 | 126.72492 | 23910 ft | 438 kts | 165° |
| 2026-05-05 07:29 | 36.38113 | 126.73481 | 24267 ft | 440 kts | 166° |
| 2026-05-05 07:29 | 36.35157 | 126.74475 | 24686 ft | 440 kts | 166° |
| 2026-05-05 07:30 | 36.32190 | 126.75472 | 24993 ft | 443 kts | 166° |
| 2026-05-05 07:30 | 36.26210 | 126.77494 | 25608 ft | 448 kts | 166° |
| 2026-05-05 07:30 | 36.23229 | 126.78496 | 25955 ft | 449 kts | 167° |
| 2026-05-05 07:31 | 36.20212 | 126.79516 | 26275 ft | 451 kts | 167° |
| 2026-05-05 07:31 | 36.17157 | 126.80508 | 26552 ft | 453 kts | 170° |
| 2026-05-05 07:31 | 36.14038 | 126.81022 | 26858 ft | 452 kts | 179° |
| 2026-05-05 07:31 | 36.10929 | 126.80916 | 27157 ft | 451 kts | 187° |
| 2026-05-05 07:32 | 36.07800 | 126.80530 | 27456 ft | 452 kts | 188° |
| 2026-05-05 07:32 | 36.04664 | 126.80133 | 27731 ft | 454 kts | 187° |
| 2026-05-05 07:32 | 36.01497 | 126.79752 | 27995 ft | 457 kts | 187° |
| 2026-05-05 07:32 | 35.98330 | 126.79394 | 28265 ft | 458 kts | 187° |
| 2026-05-05 07:33 | 35.95144 | 126.79050 | 28665 ft | 456 kts | 187° |
| 2026-05-05 07:33 | 35.91987 | 126.78712 | 29152 ft | 453 kts | 188° |
| 2026-05-05 07:33 | 35.88884 | 126.78378 | 29564 ft | 452 kts | 188° |
| 2026-05-05 07:33 | 35.85753 | 126.78040 | 29932 ft | 452 kts | 188° |
| 2026-05-05 07:34 | 35.82618 | 126.77700 | 30262 ft | 451 kts | 188° |
| 2026-05-05 07:34 | 35.79491 | 126.77361 | 30577 ft | 450 kts | 188° |
| 2026-05-05 07:34 | 35.76378 | 126.77025 | 30924 ft | 448 kts | 188° |
| 2026-05-05 07:34 | 35.73269 | 126.76689 | 31249 ft | 447 kts | 188° |
| 2026-05-05 07:35 | 35.70165 | 126.76353 | 31483 ft | 448 kts | 188° |
| 2026-05-05 07:35 | 35.67058 | 126.76017 | 31719 ft | 448 kts | 189° |
| 2026-05-05 07:35 | 35.63944 | 126.75681 | 32014 ft | 448 kts | 189° |
| 2026-05-05 07:35 | 35.60839 | 126.75347 | 32316 ft | 447 kts | 189° |
| 2026-05-05 07:36 | 35.57743 | 126.75014 | 32621 ft | 445 kts | 189° |
| 2026-05-05 07:36 | 35.54660 | 126.74680 | 32960 ft | 444 kts | 189° |
| 2026-05-05 07:36 | 35.51625 | 126.74350 | 33237 ft | 443 kts | 189° |
| 2026-05-05 07:36 | 35.48551 | 126.74023 | 33501 ft | 443 kts | 189° |
| 2026-05-05 07:37 | 35.45482 | 126.73696 | 33775 ft | 443 kts | 189° |
| 2026-05-05 07:37 | 35.42409 | 126.73369 | 34039 ft | 443 kts | 189° |
| 2026-05-05 07:37 | 35.39339 | 126.73041 | 34255 ft | 442 kts | 189° |
| 2026-05-05 07:37 | 35.36274 | 126.72713 | 34486 ft | 441 kts | 189° |
| 2026-05-05 07:38 | 35.33223 | 126.72386 | 34711 ft | 440 kts | 189° |
| 2026-05-05 07:38 | 35.30180 | 126.72062 | 34937 ft | 439 kts | 189° |
| 2026-05-05 07:38 | 35.27137 | 126.71737 | 35177 ft | 437 kts | 189° |
| 2026-05-05 07:38 | 35.24108 | 126.71414 | 35397 ft | 436 kts | 190° |
| 2026-05-05 07:39 | 35.21127 | 126.71097 | 35639 ft | 434 kts | 190° |
| 2026-05-05 07:39 | 35.18129 | 126.70778 | 35867 ft | 432 kts | 190° |
| 2026-05-05 07:39 | 35.15135 | 126.70459 | 36090 ft | 431 kts | 190° |
| 2026-05-05 07:39 | 35.12135 | 126.70139 | 36079 ft | 435 kts | 190° |
| 2026-05-05 07:40 | 35.06068 | 126.69491 | 36093 ft | 439 kts | 190° |
| 2026-05-05 07:40 | 34.99972 | 126.68849 | 36092 ft | 440 kts | 190° |
| 2026-05-05 07:41 | 34.93852 | 126.68206 | 36102 ft | 441 kts | 190° |
| 2026-05-05 07:41 | 34.87779 | 126.67559 | 36109 ft | 441 kts | 190° |
| 2026-05-05 07:42 | 34.81662 | 126.66912 | 36105 ft | 440 kts | 190° |
| 2026-05-05 07:42 | 34.75555 | 126.66268 | 36110 ft | 439 kts | 190° |
| 2026-05-05 07:43 | 34.69471 | 126.65627 | 36114 ft | 437 kts | 190° |
| 2026-05-05 07:43 | 34.63448 | 126.64993 | 36112 ft | 436 kts | 190° |
| 2026-05-05 07:44 | 34.57406 | 126.64360 | 36102 ft | 434 kts | 191° |
| 2026-05-05 07:44 | 34.51405 | 126.63730 | 36112 ft | 432 kts | 191° |
| 2026-05-05 07:45 | 34.45418 | 126.63103 | 36114 ft | 430 kts | 191° |
| 2026-05-05 07:45 | 34.39457 | 126.62480 | 36102 ft | 428 kts | 191° |
| 2026-05-05 07:46 | 34.33565 | 126.61865 | 36113 ft | 427 kts | 191° |
| 2026-05-05 07:46 | 34.27650 | 126.61248 | 36113 ft | 426 kts | 191° |
| 2026-05-05 07:47 | 34.21744 | 126.60633 | 36125 ft | 426 kts | 191° |
| 2026-05-05 07:47 | 34.15835 | 126.60017 | 36109 ft | 426 kts | 192° |
| 2026-05-05 07:48 | 34.09919 | 126.59401 | 36104 ft | 426 kts | 191° |
| 2026-05-05 07:48 | 34.04003 | 126.58785 | 36114 ft | 426 kts | 192° |
| 2026-05-05 07:49 | 33.98087 | 126.58171 | 36108 ft | 427 kts | 192° |
| 2026-05-05 07:49 | 33.92201 | 126.57560 | 36113 ft | 427 kts | 192° |
| 2026-05-05 07:50 | 33.86273 | 126.56946 | 36120 ft | 427 kts | 192° |
| 2026-05-05 07:50 | 33.80258 | 126.57100 | 36132 ft | 438 kts | 181° |
| 2026-05-05 07:51 | 33.74197 | 126.57920 | 36111 ft | 438 kts | 181° |
| 2026-05-05 07:51 | 33.69165 | 126.58583 | 36113 ft | 437 kts | 182° |
| 2026-05-05 07:52 | 33.63117 | 126.59348 | 36124 ft | 436 kts | 182° |
| 2026-05-05 07:52 | 33.56097 | 126.60221 | 36097 ft | 435 kts | 182° |
| 2026-05-05 07:53 | 33.51054 | 126.60848 | 36116 ft | 434 kts | 182° |
| 2026-05-05 07:53 | 33.45088 | 126.61589 | 36123 ft | 433 kts | 182° |
| 2026-05-05 07:54 | 33.39097 | 126.62367 | 36123 ft | 435 kts | 179° |
| 2026-05-05 07:54 | 33.33171 | 126.64373 | 36109 ft | 446 kts | 170° |
| 2026-05-05 07:55 | 33.27331 | 126.66737 | 36114 ft | 444 kts | 171° |
| 2026-05-05 07:55 | 33.21461 | 126.69022 | 36118 ft | 443 kts | 171° |
| 2026-05-05 07:56 | 33.15602 | 126.71285 | 36125 ft | 442 kts | 171° |
| 2026-05-05 07:56 | 33.09746 | 126.73549 | 36123 ft | 442 kts | 171° |
| 2026-05-05 07:57 | 33.03899 | 126.75804 | 36115 ft | 441 kts | 172° |
| 2026-05-05 07:57 | 32.98095 | 126.78049 | 36121 ft | 440 kts | 172° |
| 2026-05-05 07:58 | 32.92269 | 126.80307 | 36125 ft | 440 kts | 172° |
| 2026-05-05 07:58 | 32.86447 | 126.82560 | 36126 ft | 440 kts | 172° |
| 2026-05-05 07:59 | 32.80619 | 126.84812 | 36125 ft | 440 kts | 172° |
| 2026-05-05 07:59 | 32.74790 | 126.87061 | 36125 ft | 440 kts | 172° |
| 2026-05-05 08:00 | 32.68960 | 126.89307 | 36127 ft | 440 kts | 172° |
| 2026-05-05 08:00 | 32.63136 | 126.91548 | 36127 ft | 440 kts | 172° |
| 2026-05-05 08:01 | 32.57307 | 126.93789 | 36116 ft | 440 kts | 173° |
| 2026-05-05 08:01 | 32.51489 | 126.96022 | 36126 ft | 439 kts | 173° |
| 2026-05-05 08:02 | 32.45695 | 126.98104 | 36128 ft | 436 kts | 175° |
| 2026-05-05 08:02 | 32.39856 | 127.00004 | 36115 ft | 434 kts | 175° |
| 2026-05-05 08:03 | 32.34037 | 127.01939 | 36092 ft | 433 kts | 176° |
| 2026-05-05 08:03 | 32.28242 | 127.03886 | 36119 ft | 431 kts | 176° |
| 2026-05-05 08:04 | 32.22478 | 127.05824 | 36123 ft | 430 kts | 176° |
| 2026-05-05 08:04 | 32.16723 | 127.07760 | 36133 ft | 429 kts | 176° |
| 2026-05-05 08:05 | 32.10982 | 127.09689 | 36133 ft | 429 kts | 176° |
| 2026-05-05 08:05 | 32.05241 | 127.11615 | 36123 ft | 428 kts | 176° |
| 2026-05-05 08:06 | 31.99515 | 127.13531 | 36129 ft | 428 kts | 176° |
| 2026-05-05 08:06 | 31.93818 | 127.15434 | 36133 ft | 428 kts | 176° |
| 2026-05-05 08:07 | 31.88076 | 127.17349 | 36131 ft | 429 kts | 176° |
| 2026-05-05 08:07 | 31.82324 | 127.19268 | 36125 ft | 428 kts | 176° |
| 2026-05-05 08:08 | 31.76575 | 127.21181 | 36125 ft | 429 kts | 176° |
| 2026-05-05 08:08 | 31.70830 | 127.23091 | 36131 ft | 429 kts | 176° |
| 2026-05-05 08:09 | 31.65073 | 127.25003 | 36122 ft | 430 kts | 176° |
| 2026-05-05 08:09 | 31.59319 | 127.26912 | 36114 ft | 430 kts | 176° |
| 2026-05-05 08:10 | 31.53604 | 127.28805 | 36122 ft | 430 kts | 176° |
| 2026-05-05 08:10 | 31.47840 | 127.30712 | 36129 ft | 430 kts | 176° |
| 2026-05-05 08:11 | 31.42082 | 127.32615 | 36128 ft | 430 kts | 176° |
| 2026-05-05 08:11 | 31.36320 | 127.34516 | 36131 ft | 430 kts | 176° |
| 2026-05-05 08:12 | 31.30573 | 127.36412 | 36123 ft | 429 kts | 176° |
| 2026-05-05 08:12 | 31.24846 | 127.38296 | 36133 ft | 429 kts | 176° |
| 2026-05-05 08:13 | 31.19091 | 127.40206 | 36130 ft | 430 kts | 176° |
| 2026-05-05 08:13 | 31.13323 | 127.42127 | 36131 ft | 430 kts | 176° |
| 2026-05-05 08:14 | 31.07565 | 127.44042 | 36126 ft | 430 kts | 176° |
| 2026-05-05 08:14 | 31.01800 | 127.45955 | 36129 ft | 430 kts | 176° |
| 2026-05-05 08:15 | 30.96038 | 127.47864 | 36104 ft | 430 kts | 176° |
| 2026-05-05 08:15 | 30.90312 | 127.49760 | 36122 ft | 430 kts | 176° |
| 2026-05-05 08:16 | 30.84546 | 127.51665 | 36095 ft | 430 kts | 176° |
| 2026-05-05 08:16 | 30.78790 | 127.53565 | 36121 ft | 430 kts | 176° |
| 2026-05-05 08:17 | 30.73021 | 127.55467 | 36133 ft | 430 kts | 176° |
| 2026-05-05 08:17 | 30.67282 | 127.57356 | 36132 ft | 431 kts | 176° |
| 2026-05-05 08:18 | 30.61511 | 127.59254 | 36131 ft | 431 kts | 176° |
| 2026-05-05 08:18 | 30.55735 | 127.61152 | 36124 ft | 431 kts | 176° |
| 2026-05-05 08:19 | 30.49964 | 127.63045 | 36128 ft | 431 kts | 176° |
| 2026-05-05 08:19 | 30.44190 | 127.64937 | 36129 ft | 431 kts | 176° |
| 2026-05-05 08:20 | 30.38409 | 127.66829 | 36126 ft | 432 kts | 176° |
| 2026-05-05 08:20 | 30.32627 | 127.68720 | 36125 ft | 432 kts | 176° |
| 2026-05-05 08:21 | 30.26840 | 127.70610 | 36123 ft | 432 kts | 176° |
| 2026-05-05 08:21 | 30.21098 | 127.72481 | 36114 ft | 431 kts | 176° |
| 2026-05-05 08:22 | 30.15329 | 127.74359 | 36121 ft | 431 kts | 176° |
| 2026-05-05 08:22 | 30.09558 | 127.76236 | 36090 ft | 430 kts | 176° |
| 2026-05-05 08:23 | 30.03798 | 127.78107 | 36113 ft | 430 kts | 176° |
| 2026-05-05 08:23 | 29.98037 | 127.79976 | 36123 ft | 430 kts | 176° |
| 2026-05-05 08:24 | 29.92277 | 127.81844 | 36123 ft | 430 kts | 176° |
| 2026-05-05 08:24 | 29.86509 | 127.83711 | 36121 ft | 430 kts | 176° |
| 2026-05-05 08:25 | 29.80761 | 127.85804 | 36114 ft | 435 kts | 173° |
| 2026-05-05 08:25 | 29.75019 | 127.88052 | 36119 ft | 436 kts | 173° |
| 2026-05-05 08:26 | 29.69267 | 127.90271 | 36116 ft | 436 kts | 173° |
| 2026-05-05 08:26 | 29.63505 | 127.92462 | 36113 ft | 437 kts | 173° |
| 2026-05-05 08:27 | 29.57733 | 127.94650 | 36084 ft | 437 kts | 173° |
| 2026-05-05 08:27 | 29.52003 | 127.96822 | 36107 ft | 436 kts | 173° |
| 2026-05-05 08:28 | 29.46236 | 127.99001 | 36110 ft | 437 kts | 173° |
| 2026-05-05 08:28 | 29.40454 | 128.01184 | 36112 ft | 437 kts | 173° |
| 2026-05-05 08:29 | 29.34668 | 128.03367 | 36112 ft | 437 kts | 173° |
| 2026-05-05 08:30 | 29.25994 | 128.06636 | 36101 ft | 437 kts | 173° |
| 2026-05-05 08:30 | 29.20211 | 128.08811 | 36111 ft | 437 kts | 173° |
| 2026-05-05 08:31 | 29.14465 | 128.10971 | 36109 ft | 437 kts | 173° |
| 2026-05-05 08:31 | 29.08673 | 128.13145 | 36107 ft | 438 kts | 173° |
| 2026-05-05 08:32 | 29.02869 | 128.15205 | 36090 ft | 427 kts | 182° |
| 2026-05-05 08:32 | 29.00003 | 128.15348 | 36118 ft | 404 kts | 195° |
| 2026-05-05 08:32 | 28.97217 | 128.15006 | 36108 ft | 402 kts | 197° |
| 2026-05-05 08:33 | 28.91652 | 128.14227 | 36104 ft | 404 kts | 197° |
| 2026-05-05 08:33 | 28.86061 | 128.13461 | 36104 ft | 406 kts | 196° |
| 2026-05-05 08:34 | 28.80436 | 128.12724 | 36100 ft | 407 kts | 196° |
| 2026-05-05 08:34 | 28.74821 | 128.12006 | 36097 ft | 409 kts | 196° |
| 2026-05-05 08:35 | 28.69159 | 128.11287 | 36103 ft | 410 kts | 196° |
| 2026-05-05 08:35 | 28.63486 | 128.10568 | 36103 ft | 410 kts | 196° |
| 2026-05-05 08:36 | 28.57811 | 128.09849 | 36097 ft | 410 kts | 196° |
| 2026-05-05 08:36 | 28.52133 | 128.09130 | 36100 ft | 410 kts | 196° |
| 2026-05-05 08:37 | 28.46467 | 128.08413 | 36104 ft | 410 kts | 196° |
| 2026-05-05 08:37 | 28.41751 | 128.07817 | 36100 ft | 410 kts | 196° |
| 2026-05-05 08:38 | 28.35125 | 128.06981 | 36089 ft | 409 kts | 196° |
| 2026-05-05 08:38 | 28.29495 | 128.06270 | 36103 ft | 409 kts | 196° |
| 2026-05-05 08:39 | 28.24778 | 128.05675 | 36113 ft | 410 kts | 196° |
| 2026-05-05 08:39 | 28.19095 | 128.04958 | 36101 ft | 411 kts | 196° |
| 2026-05-05 08:40 | 28.13406 | 128.04243 | 36082 ft | 411 kts | 195° |
| 2026-05-05 08:40 | 28.07716 | 128.03529 | 36107 ft | 412 kts | 195° |
| 2026-05-05 08:41 | 28.02011 | 128.02813 | 36105 ft | 412 kts | 195° |
| 2026-05-05 08:41 | 27.96309 | 128.02098 | 36102 ft | 412 kts | 195° |
| 2026-05-05 08:42 | 27.90615 | 128.01385 | 36102 ft | 412 kts | 195° |
| 2026-05-05 08:42 | 27.84951 | 128.00676 | 36062 ft | 413 kts | 195° |
| 2026-05-05 08:42 | 27.82067 | 128.00311 | 35532 ft | 419 kts | 195° |
| 2026-05-05 08:43 | 27.79170 | 127.99949 | 34928 ft | 417 kts | 195° |
| 2026-05-05 08:43 | 27.76286 | 127.99591 | 34330 ft | 416 kts | 195° |
| 2026-05-05 08:43 | 27.73394 | 127.99232 | 33630 ft | 416 kts | 195° |
| 2026-05-05 08:43 | 27.70516 | 127.98873 | 32940 ft | 416 kts | 194° |
| 2026-05-05 08:44 | 27.67700 | 127.98526 | 32523 ft | 410 kts | 194° |
| 2026-05-05 08:44 | 27.64873 | 127.98176 | 32044 ft | 406 kts | 194° |
| 2026-05-05 08:44 | 27.62078 | 127.97830 | 31593 ft | 402 kts | 194° |
| 2026-05-05 08:44 | 27.59300 | 127.97485 | 31149 ft | 399 kts | 194° |
| 2026-05-05 08:45 | 27.56547 | 127.97142 | 30707 ft | 396 kts | 194° |
| 2026-05-05 08:45 | 27.53818 | 127.96802 | 30268 ft | 394 kts | 194° |
| 2026-05-05 08:45 | 27.51095 | 127.96463 | 29759 ft | 391 kts | 194° |
| 2026-05-05 08:45 | 27.48403 | 127.96128 | 29248 ft | 388 kts | 195° |
| 2026-05-05 08:46 | 27.45734 | 127.95798 | 28833 ft | 382 kts | 195° |
| 2026-05-05 08:46 | 27.43101 | 127.95472 | 28373 ft | 379 kts | 195° |
| 2026-05-05 08:46 | 27.40494 | 127.95148 | 27978 ft | 374 kts | 195° |
| 2026-05-05 08:46 | 27.37915 | 127.94828 | 27528 ft | 371 kts | 195° |
| 2026-05-05 08:47 | 27.35357 | 127.94511 | 27095 ft | 368 kts | 195° |
| 2026-05-05 08:47 | 27.32847 | 127.94199 | 26672 ft | 365 kts | 195° |
| 2026-05-05 08:47 | 27.30326 | 127.93887 | 26254 ft | 363 kts | 195° |
| 2026-05-05 08:47 | 27.27836 | 127.93578 | 25837 ft | 360 kts | 195° |
| 2026-05-05 08:48 | 27.25336 | 127.93268 | 25402 ft | 358 kts | 194° |
| 2026-05-05 08:48 | 27.22867 | 127.92962 | 24997 ft | 356 kts | 194° |
| 2026-05-05 08:48 | 27.20416 | 127.92658 | 24600 ft | 353 kts | 194° |
| 2026-05-05 08:48 | 27.17973 | 127.92356 | 24179 ft | 352 kts | 194° |
| 2026-05-05 08:49 | 27.15537 | 127.92054 | 23770 ft | 352 kts | 194° |
| 2026-05-05 08:49 | 27.13101 | 127.91752 | 23289 ft | 352 kts | 194° |
| 2026-05-05 08:49 | 27.10672 | 127.91452 | 22859 ft | 351 kts | 193° |
| 2026-05-05 08:49 | 27.08246 | 127.91152 | 22425 ft | 350 kts | 193° |
| 2026-05-05 08:50 | 27.05831 | 127.90855 | 21991 ft | 348 kts | 193° |
| 2026-05-05 08:50 | 27.03456 | 127.90563 | 21585 ft | 346 kts | 193° |
| 2026-05-05 08:50 | 27.01068 | 127.90276 | 21153 ft | 346 kts | 192° |
| 2026-05-05 08:50 | 26.98616 | 127.90184 | 20758 ft | 350 kts | 186° |
| 2026-05-05 08:51 | 26.96209 | 127.90255 | 20384 ft | 352 kts | 185° |
| 2026-05-05 08:51 | 26.93734 | 127.90369 | 19974 ft | 360 kts | 184° |
| 2026-05-05 08:51 | 26.91211 | 127.90487 | 19527 ft | 363 kts | 184° |
| 2026-05-05 08:51 | 26.88694 | 127.90596 | 19115 ft | 361 kts | 184° |
| 2026-05-05 08:52 | 26.86191 | 127.90694 | 18674 ft | 359 kts | 184° |
| 2026-05-05 08:52 | 26.83694 | 127.90781 | 18208 ft | 359 kts | 184° |
| 2026-05-05 08:52 | 26.81202 | 127.90862 | 17750 ft | 357 kts | 184° |
| 2026-05-05 08:52 | 26.78726 | 127.90939 | 17306 ft | 354 kts | 184° |
| 2026-05-05 08:53 | 26.76271 | 127.91014 | 16888 ft | 351 kts | 184° |
| 2026-05-05 08:53 | 26.73865 | 127.91088 | 16484 ft | 348 kts | 184° |
| 2026-05-05 08:53 | 26.71451 | 127.91160 | 16070 ft | 346 kts | 184° |
| 2026-05-05 08:53 | 26.69049 | 127.91231 | 15656 ft | 343 kts | 184° |
| 2026-05-05 08:54 | 26.66670 | 127.91302 | 15257 ft | 341 kts | 184° |
| 2026-05-05 08:54 | 26.64300 | 127.91372 | 14845 ft | 339 kts | 184° |
| 2026-05-05 08:54 | 26.61948 | 127.91441 | 14459 ft | 337 kts | 184° |
| 2026-05-05 08:54 | 26.59604 | 127.91550 | 14042 ft | 336 kts | 184° |
| 2026-05-05 08:55 | 26.57272 | 127.91614 | 13613 ft | 334 kts | 184° |
| 2026-05-05 08:55 | 26.54989 | 127.91667 | 13177 ft | 332 kts | 184° |
| 2026-05-05 08:55 | 26.52690 | 127.91726 | 12727 ft | 324 kts | 185° |
| 2026-05-05 08:55 | 26.50472 | 127.91787 | 12325 ft | 312 kts | 185° |
| 2026-05-05 08:56 | 26.48335 | 127.91846 | 11986 ft | 304 kts | 185° |
| 2026-05-05 08:56 | 26.46224 | 127.91906 | 11610 ft | 303 kts | 184° |
| 2026-05-05 08:56 | 26.44120 | 127.91969 | 11372 ft | 299 kts | 184° |
| 2026-05-05 08:56 | 26.42071 | 127.92031 | 11219 ft | 291 kts | 184° |
| 2026-05-05 08:57 | 26.40072 | 127.92076 | 11086 ft | 282 kts | 188° |
| 2026-05-05 08:57 | 26.38214 | 127.91608 | 10772 ft | 271 kts | 206° |
| 2026-05-05 08:57 | 26.36506 | 127.90756 | 10472 ft | 268 kts | 208° |
| 2026-05-05 08:57 | 26.34814 | 127.89879 | 10144 ft | 267 kts | 208° |
| 2026-05-05 08:58 | 26.33164 | 127.89023 | 9963 ft | 257 kts | 208° |
| 2026-05-05 08:58 | 26.31555 | 127.88191 | 9500 ft | 254 kts | 208° |
| 2026-05-05 08:58 | 26.29950 | 127.87362 | 8998 ft | 254 kts | 208° |
| 2026-05-05 08:58 | 26.28344 | 127.86536 | 8548 ft | 252 kts | 207° |
| 2026-05-05 08:59 | 26.26764 | 127.85725 | 8291 ft | 249 kts | 207° |
| 2026-05-05 08:59 | 26.25186 | 127.84917 | 8056 ft | 250 kts | 207° |
| 2026-05-05 08:59 | 26.23598 | 127.84109 | 7863 ft | 251 kts | 207° |
| 2026-05-05 08:59 | 26.21998 | 127.83290 | 7548 ft | 254 kts | 207° |
| 2026-05-05 09:00 | 26.20409 | 127.82475 | 7219 ft | 255 kts | 206° |
| 2026-05-05 09:00 | 26.18790 | 127.81649 | 6899 ft | 256 kts | 206° |
| 2026-05-05 09:00 | 26.17166 | 127.80817 | 6592 ft | 257 kts | 206° |
| 2026-05-05 09:00 | 26.15527 | 127.80040 | 6217 ft | 253 kts | 204° |
| 2026-05-05 09:01 | 26.13947 | 127.79228 | 5870 ft | 247 kts | 207° |
| 2026-05-05 09:01 | 26.12412 | 127.78394 | 5510 ft | 244 kts | 205° |
| 2026-05-05 09:01 | 26.10890 | 127.77613 | 5207 ft | 237 kts | 204° |
| 2026-05-05 09:01 | 26.09405 | 127.76860 | 4918 ft | 230 kts | 205° |
| 2026-05-05 09:02 | 26.07983 | 127.76140 | 4624 ft | 226 kts | 204° |
| 2026-05-05 09:02 | 26.06568 | 127.75412 | 4320 ft | 221 kts | 208° |
| 2026-05-05 09:02 | 26.05480 | 127.74211 | 4029 ft | 222 kts | 238° |
| 2026-05-05 09:02 | 26.05029 | 127.72628 | 3855 ft | 213 kts | 263° |
| 2026-05-05 09:03 | 26.04954 | 127.71013 | 3520 ft | 209 kts | 264° |
| 2026-05-05 09:03 | 26.04893 | 127.69404 | 3135 ft | 206 kts | 265° |
| 2026-05-05 09:03 | 26.04838 | 127.67784 | 2672 ft | 213 kts | 266° |
| 2026-05-05 09:03 | 26.04802 | 127.66156 | 2354 ft | 206 kts | 274° |
| 2026-05-05 09:04 | 26.05309 | 127.64741 | 2054 ft | 195 kts | 318° |
| 2026-05-05 09:04 | 26.06383 | 127.64003 | 2112 ft | 178 kts | 345° |
| 2026-05-05 09:04 | 26.07563 | 127.63809 | 2127 ft | 169 kts | 4° |
| 2026-05-05 09:04 | 26.08721 | 127.63760 | 1975 ft | 164 kts | 4° |
| 2026-05-05 09:05 | 26.09867 | 127.63713 | 1654 ft | 164 kts | 3° |
| 2026-05-05 09:05 | 26.10997 | 127.63671 | 1372 ft | 159 kts | 2° |
| 2026-05-05 09:05 | 26.12060 | 127.63628 | 1170 ft | 152 kts | 2° |
| 2026-05-05 09:05 | 26.13108 | 127.63576 | 1003 ft | 151 kts | 359° |
| 2026-05-05 09:06 | 26.14175 | 127.63525 | 791 ft | 152 kts | 360° |
| 2026-05-05 09:06 | 26.15232 | 127.63474 | 579 ft | 152 kts | 358° |
| 2026-05-05 09:06 | 26.16260 | 127.63432 | 387 ft | 146 kts | 359° |
| 2026-05-05 09:06 | 26.17270 | 127.63379 | 203 ft | 145 kts | 359° |
| 2026-05-05 09:07 | 26.18261 | 127.63335 | 28 ft | 141 kts | 0° |
| 2026-05-05 09:07 | 26.19116 | 127.63296 | 14 ft | 96 kts | 357° |
| 2026-05-05 09:07 | 26.19574 | 127.63275 | 17 ft | 40 kts | 358° |
| 2026-05-05 09:07 | 26.19832 | 127.63263 | 17 ft | 35 kts | 358° |
| 2026-05-05 09:08 | 26.20056 | 127.63253 | 17 ft | 27 kts | 358° |
| 2026-05-05 09:08 | 26.20214 | 127.63244 | 16 ft | 16 kts | 357° |
| 2026-05-05 09:08 | 26.20296 | 127.63284 | 15 ft | 14 kts | 89° |
| 2026-05-05 09:08 | 26.20297 | 127.63390 | 16 ft | 13 kts | 87° |
| 2026-05-05 09:09 | 26.20302 | 127.63489 | 16 ft | 13 kts | 87° |
| 2026-05-05 09:09 | 26.20305 | 127.63587 | 16 ft | 13 kts | 88° |
| 2026-05-05 09:09 | 26.20306 | 127.63610 | 16 ft | 0 kts | 87° |